Wednesday, October 22, 2014
13:52 UTC
  |  Log In   |  Register Free
Airport Search:

Orlando Sanford International Airport
(KSFB)

FAA data valid effective September 18, 2014 - November 13, 2014 (unless otherwise noted).

 
 
 
 
 
 
 
 
 
 
 
 
 
 

Current Aviation Weather for Orlando Sanford International Airport (KSFB)

The most recent METAR observation for KSFB was updated at: 1316
METAR Summary (Translated METAR)
KSFB
221253Z 35004KT 10SM CLR 22/17 A2999 RMK AO2 SLP153 T02170172
KORL
221253Z 35005KT 10SM CLR 23/18 A2999 RMK AO2 SLP159 T02280178
(14.8 nm SW from KSFB)
KDED
221255Z AUTO 34007KT 9SM CLR 19/15 A3000 RMK AO1
(17.6 nm NW from KSFB)
TAF Summary (Translated TAF)
KSFB
221256Z 2213/2312 35004KT P6SM SKC FM221400 01008KT P6SM SCT250 FM222100 02009KT P6SM SCT250 FM230100 02005KT P6SM SCT250 FM230600 35005KT P6SM SKC
  Airport Weather Conditions for KSFB

 Current Weather at SFB
71° F
Fair
North winds at 4.6 mph
SFB NOAA Radar

Pressure: 29.99 in
Humidity: 76%
Wind: North at 4.6 MPH (4 KT)
Dew Point: 63.0°F
Visibility: 10.00 mi


Airport Weather Forecast for KSFB

Translated METAR and TAF for KSFB
Translated METAR for KSFB (1347 UTC 22 October 2014)
found at http://aviationweather.gov/adds/metars/
 
METAR text: KSFB 221253Z 35004KT 10SM CLR 22/17 A2999 RMK AO2 SLP153 T02170172
Conditions at: KSFB (SANFORD/ORLANDO , FL, US) observed 1253 UTC 22 October 2014
Temperature: 21.7°C (71°F)
Dewpoint: 17.2°C (63°F) [RH = 76%]
Pressure (altimeter): 29.99 inches Hg (1015.7 mb)
[Sea-level pressure: 1015.3 mb]
Winds: from the N (350 degrees) at 5 MPH (4 knots; 2.1 m/s)
Visibility: 10 or more miles (16+ km)
Ceiling: at least 12,000 feet AGL
Clouds: sky clear below 12,000 feet AGL
Weather: no significant weather observed at this time
Translated TAF for KSFB
Forecast for: KSFB (SANFORD/ORLANDO , FL, US)
TAF Text: KSFB 221256Z 2213/2312 35004KT P6SM SKC
Forecast period: 1300 to 1400 UTC 22 October 2014
Forecast type: FROM: standard forecast or significant change
Winds: from the N (350 degrees) at 5 MPH (4 knots; 2.1 m/s)
Visibility: 6 or more miles (10+ km)
Clouds: clear skies
Weather: no significant weather forecast for this period
TAF Text: FM221400 01008KT P6SM SCT250
Forecast period: 1400 to 2100 UTC 22 October 2014
Forecast type: FROM: standard forecast or significant change
Winds: from the N (10 degrees) at 9 MPH (8 knots; 4.2 m/s)
Visibility: 6 or more miles (10+ km)
Clouds: scattered clouds at 25000 feet AGL
Weather: no significant weather forecast for this period
TAF Text: FM222100 02009KT P6SM SCT250
Forecast period: 2100 UTC 22 October 2014 to 0100 UTC 23 October 2014
Forecast type: FROM: standard forecast or significant change
Winds: from the NNE (20 degrees) at 10 MPH (9 knots; 4.7 m/s)
Visibility: 6 or more miles (10+ km)
Clouds: scattered clouds at 25000 feet AGL
Weather: no significant weather forecast for this period
TAF Text: FM230100 02005KT P6SM SCT250
Forecast period: 0100 to 0600 UTC 23 October 2014
Forecast type: FROM: standard forecast or significant change
Winds: from the NNE (20 degrees) at 6 MPH (5 knots; 2.6 m/s)
Visibility: 6 or more miles (10+ km)
Clouds: scattered clouds at 25000 feet AGL
Weather: no significant weather forecast for this period
TAF Text: FM230600 35005KT P6SM SKC
Forecast period: 0600 to 1200 UTC 23 October 2014
Forecast type: FROM: standard forecast or significant change
Winds: from the N (350 degrees) at 6 MPH (5 knots; 2.6 m/s)
Visibility: 6 or more miles (10+ km)
Clouds: clear skies
Weather: no significant weather forecast for this period

Find All Airport Services Find A Hotel Find A Rental Car Find A Golf Course Find A Restaurant $100 Hamburger



FBO's on the Field
FBO Company Facility Photos Services Transportation Aviation Fuel Prices: Prices include tax
Catering Weather Repair Courtesy Rental Type 100LL JetA JetA+ MOGAS 8087
 
StarPort

StarPort logo
Currently rated 3.8 by 7 people
FS:
Last Updated: Oct-20
Login to update fuel prices
SS:
Contact StarPortMore FBO Information
 
Million Air Sanford

Currently rated 3.6 by 3 people
FS:Avfuel
Last Updated: Oct-13
Login to update fuel prices
SS:
Contact Million Air SanfordMore FBO Information
 
Add another FBO Facility Photos Catering Weather Repair Courtesy Rental Type 100LL JetA JetA+ MOGAS 8087
Services Transportation Aviation Fuel Prices: Prices include tax


model-print
model-print
model-print
model-print